sensor_id;sensor_type;location;lat;lon;timestamp;P1;durP1;ratioP1;P2;durP2;ratioP2
15114;SDS011;7658;51.456;7.622;2022-07-17T00:01:32;3.22;;;2.53;;
15114;SDS011;7658;51.456;7.622;2022-07-17T00:03:58;6.03;;;2.40;;
15114;SDS011;7658;51.456;7.622;2022-07-17T00:06:23;5.07;;;2.60;;
15114;SDS011;7658;51.456;7.622;2022-07-17T00:08:49;3.80;;;2.47;;
15114;SDS011;7658;51.456;7.622;2022-07-17T00:11:15;3.55;;;2.65;;
15114;SDS011;7658;51.456;7.622;2022-07-17T00:13:41;3.97;;;2.80;;
15114;SDS011;7658;51.456;7.622;2022-07-17T00:16:06;3.25;;;2.65;;
15114;SDS011;7658;51.456;7.622;2022-07-17T00:18:33;4.40;;;2.70;;
15114;SDS011;7658;51.456;7.622;2022-07-17T00:20:58;3.58;;;2.40;;
15114;SDS011;7658;51.456;7.622;2022-07-17T00:23:24;2.60;;;2.40;;
15114;SDS011;7658;51.456;7.622;2022-07-17T00:25:50;5.70;;;2.50;;
15114;SDS011;7658;51.456;7.622;2022-07-17T00:28:15;4.90;;;2.70;;
15114;SDS011;7658;51.456;7.622;2022-07-17T00:30:41;5.07;;;2.58;;
15114;SDS011;7658;51.456;7.622;2022-07-17T00:33:07;6.47;;;3.45;;
15114;SDS011;7658;51.456;7.622;2022-07-17T00:35:33;4.30;;;3.15;;
15114;SDS011;7658;51.456;7.622;2022-07-17T00:37:59;6.70;;;3.72;;
15114;SDS011;7658;51.456;7.622;2022-07-17T00:40:24;3.63;;;2.80;;
15114;SDS011;7658;51.456;7.622;2022-07-17T00:42:51;4.88;;;3.05;;
15114;SDS011;7658;51.456;7.622;2022-07-17T00:45:17;3.53;;;2.88;;
15114;SDS011;7658;51.456;7.622;2022-07-17T00:50:26;4.35;;;2.80;;
15114;SDS011;7658;51.456;7.622;2022-07-17T00:52:56;3.70;;;2.60;;
15114;SDS011;7658;51.456;7.622;2022-07-17T00:55:22;4.60;;;3.00;;
15114;SDS011;7658;51.456;7.622;2022-07-17T00:57:49;3.38;;;2.45;;
15114;SDS011;7658;51.456;7.622;2022-07-17T01:00:17;5.60;;;2.42;;
15114;SDS011;7658;51.456;7.622;2022-07-17T01:02:46;3.25;;;2.53;;
15114;SDS011;7658;51.456;7.622;2022-07-17T01:05:14;2.97;;;2.50;;
15114;SDS011;7658;51.456;7.622;2022-07-17T01:07:40;5.07;;;2.75;;
15114;SDS011;7658;51.456;7.622;2022-07-17T01:10:06;3.57;;;2.80;;
15114;SDS011;7658;51.456;7.622;2022-07-17T01:12:33;3.88;;;2.67;;
15114;SDS011;7658;51.456;7.622;2022-07-17T01:14:59;2.60;;;2.40;;
15114;SDS011;7658;51.456;7.622;2022-07-17T01:17:26;4.88;;;2.67;;
15114;SDS011;7658;51.456;7.622;2022-07-17T01:19:52;4.57;;;2.88;;
15114;SDS011;7658;51.456;7.622;2022-07-17T01:22:18;3.72;;;2.95;;
15114;SDS011;7658;51.456;7.622;2022-07-17T01:24:44;3.67;;;2.88;;
15114;SDS011;7658;51.456;7.622;2022-07-17T01:27:10;5.20;;;2.70;;
15114;SDS011;7658;51.456;7.622;2022-07-17T01:29:37;5.47;;;2.88;;
15114;SDS011;7658;51.456;7.622;2022-07-17T01:32:03;4.72;;;2.88;;
15114;SDS011;7658;51.456;7.622;2022-07-17T01:34:30;3.42;;;2.63;;
15114;SDS011;7658;51.456;7.622;2022-07-17T01:36:56;5.95;;;2.80;;
15114;SDS011;7658;51.456;7.622;2022-07-17T01:39:23;4.75;;;2.95;;
15114;SDS011;7658;51.456;7.622;2022-07-17T01:42:07;4.18;;;2.88;;
15114;SDS011;7658;51.456;7.622;2022-07-17T01:44:33;3.22;;;2.88;;
15114;SDS011;7658;51.456;7.622;2022-07-17T01:46:58;4.88;;;3.22;;
15114;SDS011;7658;51.456;7.622;2022-07-17T01:49:24;4.35;;;3.00;;
15114;SDS011;7658;51.456;7.622;2022-07-17T01:51:50;5.00;;;2.65;;
15114;SDS011;7658;51.456;7.622;2022-07-17T01:54:16;2.75;;;2.55;;
15114;SDS011;7658;51.456;7.622;2022-07-17T01:56:42;5.28;;;2.80;;
15114;SDS011;7658;51.456;7.622;2022-07-17T01:59:08;2.97;;;2.63;;
15114;SDS011;7658;51.456;7.622;2022-07-17T02:01:33;5.97;;;3.00;;
15114;SDS011;7658;51.456;7.622;2022-07-17T02:03:59;5.80;;;2.70;;
15114;SDS011;7658;51.456;7.622;2022-07-17T02:06:25;3.60;;;2.73;;
15114;SDS011;7658;51.456;7.622;2022-07-17T02:08:51;4.32;;;2.88;;
15114;SDS011;7658;51.456;7.622;2022-07-17T02:11:17;3.67;;;2.80;;
15114;SDS011;7658;51.456;7.622;2022-07-17T02:13:43;6.27;;;3.77;;
15114;SDS011;7658;51.456;7.622;2022-07-17T02:16:09;3.73;;;2.87;;
15114;SDS011;7658;51.456;7.622;2022-07-17T02:18:35;3.97;;;3.27;;
15114;SDS011;7658;51.456;7.622;2022-07-17T02:21:01;5.73;;;4.07;;
15114;SDS011;7658;51.456;7.622;2022-07-17T02:23:27;4.20;;;2.60;;
15114;SDS011;7658;51.456;7.622;2022-07-17T02:25:53;6.13;;;3.40;;
15114;SDS011;7658;51.456;7.622;2022-07-17T02:28:19;3.87;;;2.90;;
15114;SDS011;7658;51.456;7.622;2022-07-17T02:30:45;6.37;;;2.90;;
15114;SDS011;7658;51.456;7.622;2022-07-17T02:33:12;6.67;;;3.10;;
15114;SDS011;7658;51.456;7.622;2022-07-17T02:35:37;4.33;;;2.80;;
15114;SDS011;7658;51.456;7.622;2022-07-17T02:38:03;4.60;;;2.90;;
15114;SDS011;7658;51.456;7.622;2022-07-17T02:40:29;4.33;;;2.77;;
15114;SDS011;7658;51.456;7.622;2022-07-17T02:42:55;3.40;;;2.83;;
15114;SDS011;7658;51.456;7.622;2022-07-17T02:45:21;4.83;;;3.17;;
15114;SDS011;7658;51.456;7.622;2022-07-17T02:47:49;4.23;;;3.20;;
15114;SDS011;7658;51.456;7.622;2022-07-17T02:50:16;4.63;;;3.27;;
15114;SDS011;7658;51.456;7.622;2022-07-17T02:52:42;7.30;;;2.90;;
15114;SDS011;7658;51.456;7.622;2022-07-17T02:55:09;4.60;;;3.07;;
15114;SDS011;7658;51.456;7.622;2022-07-17T02:57:36;6.23;;;3.13;;
15114;SDS011;7658;51.456;7.622;2022-07-17T03:00:06;3.27;;;2.83;;
15114;SDS011;7658;51.456;7.622;2022-07-17T03:02:34;3.27;;;2.63;;
15114;SDS011;7658;51.456;7.622;2022-07-17T03:05:00;4.73;;;3.20;;
15114;SDS011;7658;51.456;7.622;2022-07-17T03:07:25;3.43;;;3.10;;
15114;SDS011;7658;51.456;7.622;2022-07-17T03:09:52;4.27;;;2.83;;
15114;SDS011;7658;51.456;7.622;2022-07-17T03:12:18;5.20;;;3.27;;
15114;SDS011;7658;51.456;7.622;2022-07-17T03:14:44;3.43;;;2.93;;
15114;SDS011;7658;51.456;7.622;2022-07-17T03:17:09;3.73;;;3.00;;
15114;SDS011;7658;51.456;7.622;2022-07-17T03:19:35;3.87;;;3.03;;
15114;SDS011;7658;51.456;7.622;2022-07-17T03:22:01;6.33;;;3.10;;
15114;SDS011;7658;51.456;7.622;2022-07-17T03:24:27;3.50;;;3.13;;
15114;SDS011;7658;51.456;7.622;2022-07-17T03:26:53;4.20;;;3.17;;
15114;SDS011;7658;51.456;7.622;2022-07-17T03:29:19;3.37;;;3.03;;
15114;SDS011;7658;51.456;7.622;2022-07-17T03:31:45;3.60;;;3.20;;
15114;SDS011;7658;51.456;7.622;2022-07-17T03:34:11;4.37;;;2.70;;
15114;SDS011;7658;51.456;7.622;2022-07-17T03:36:38;5.20;;;2.70;;
15114;SDS011;7658;51.456;7.622;2022-07-17T03:39:03;4.63;;;2.70;;
15114;SDS011;7658;51.456;7.622;2022-07-17T03:41:29;5.50;;;3.13;;
15114;SDS011;7658;51.456;7.622;2022-07-17T03:43:55;3.47;;;2.83;;
15114;SDS011;7658;51.456;7.622;2022-07-17T03:46:21;5.10;;;2.67;;
15114;SDS011;7658;51.456;7.622;2022-07-17T03:48:47;5.17;;;3.10;;
15114;SDS011;7658;51.456;7.622;2022-07-17T03:51:13;4.37;;;3.23;;
15114;SDS011;7658;51.456;7.622;2022-07-17T03:53:39;5.23;;;3.40;;
15114;SDS011;7658;51.456;7.622;2022-07-17T03:56:05;6.83;;;3.30;;
15114;SDS011;7658;51.456;7.622;2022-07-17T03:58:31;6.23;;;3.70;;
15114;SDS011;7658;51.456;7.622;2022-07-17T04:00:58;6.30;;;3.37;;
15114;SDS011;7658;51.456;7.622;2022-07-17T04:03:24;3.53;;;3.10;;
15114;SDS011;7658;51.456;7.622;2022-07-17T04:05:50;4.93;;;3.43;;
15114;SDS011;7658;51.456;7.622;2022-07-17T04:08:16;4.47;;;2.90;;
15114;SDS011;7658;51.456;7.622;2022-07-17T04:10:42;5.13;;;3.20;;
15114;SDS011;7658;51.456;7.622;2022-07-17T04:13:07;5.37;;;3.43;;
15114;SDS011;7658;51.456;7.622;2022-07-17T04:15:33;5.30;;;3.23;;
15114;SDS011;7658;51.456;7.622;2022-07-17T04:18:17;5.43;;;3.00;;
15114;SDS011;7658;51.456;7.622;2022-07-17T04:20:55;4.23;;;3.40;;
15114;SDS011;7658;51.456;7.622;2022-07-17T04:23:23;4.13;;;3.40;;
15114;SDS011;7658;51.456;7.622;2022-07-17T04:25:49;4.73;;;3.30;;
15114;SDS011;7658;51.456;7.622;2022-07-17T04:28:15;5.13;;;3.33;;
15114;SDS011;7658;51.456;7.622;2022-07-17T04:30:41;5.80;;;4.10;;
15114;SDS011;7658;51.456;7.622;2022-07-17T04:33:07;6.73;;;3.90;;
15114;SDS011;7658;51.456;7.622;2022-07-17T04:35:34;6.60;;;4.07;;
15114;SDS011;7658;51.456;7.622;2022-07-17T04:38:00;9.47;;;4.03;;
15114;SDS011;7658;51.456;7.622;2022-07-17T04:40:27;8.33;;;3.93;;
15114;SDS011;7658;51.456;7.622;2022-07-17T04:42:53;5.40;;;3.70;;
15114;SDS011;7658;51.456;7.622;2022-07-17T04:45:19;6.27;;;4.00;;
15114;SDS011;7658;51.456;7.622;2022-07-17T04:47:44;7.73;;;4.17;;
15114;SDS011;7658;51.456;7.622;2022-07-17T04:50:10;6.60;;;4.30;;
15114;SDS011;7658;51.456;7.622;2022-07-17T04:52:36;7.83;;;4.13;;
15114;SDS011;7658;51.456;7.622;2022-07-17T04:55:02;8.40;;;4.30;;
15114;SDS011;7658;51.456;7.622;2022-07-17T04:57:28;6.23;;;3.90;;
15114;SDS011;7658;51.456;7.622;2022-07-17T04:59:54;7.23;;;4.00;;
15114;SDS011;7658;51.456;7.622;2022-07-17T05:02:20;8.53;;;4.07;;
15114;SDS011;7658;51.456;7.622;2022-07-17T05:04:46;6.33;;;4.00;;
15114;SDS011;7658;51.456;7.622;2022-07-17T05:07:12;6.23;;;4.00;;
15114;SDS011;7658;51.456;7.622;2022-07-17T05:09:38;6.83;;;4.30;;
15114;SDS011;7658;51.456;7.622;2022-07-17T05:12:04;8.60;;;4.40;;
15114;SDS011;7658;51.456;7.622;2022-07-17T05:14:30;6.77;;;4.27;;
15114;SDS011;7658;51.456;7.622;2022-07-17T05:16:56;7.30;;;4.70;;
15114;SDS011;7658;51.456;7.622;2022-07-17T05:19:22;7.17;;;4.67;;
15114;SDS011;7658;51.456;7.622;2022-07-17T05:21:48;7.37;;;4.70;;
15114;SDS011;7658;51.456;7.622;2022-07-17T05:24:14;9.70;;;4.90;;
15114;SDS011;7658;51.456;7.622;2022-07-17T05:26:40;7.97;;;4.60;;
15114;SDS011;7658;51.456;7.622;2022-07-17T05:29:06;6.23;;;4.40;;
15114;SDS011;7658;51.456;7.622;2022-07-17T05:31:32;6.87;;;4.33;;
15114;SDS011;7658;51.456;7.622;2022-07-17T05:33:59;7.67;;;4.70;;
15114;SDS011;7658;51.456;7.622;2022-07-17T05:36:25;6.20;;;4.57;;
15114;SDS011;7658;51.456;7.622;2022-07-17T05:38:50;7.30;;;4.73;;
15114;SDS011;7658;51.456;7.622;2022-07-17T05:41:16;8.00;;;4.50;;
15114;SDS011;7658;51.456;7.622;2022-07-17T05:43:42;8.00;;;4.37;;
15114;SDS011;7658;51.456;7.622;2022-07-17T05:46:08;6.57;;;4.60;;
15114;SDS011;7658;51.456;7.622;2022-07-17T05:48:34;7.17;;;3.90;;
15114;SDS011;7658;51.456;7.622;2022-07-17T05:50:59;6.90;;;4.00;;
15114;SDS011;7658;51.456;7.622;2022-07-17T05:53:25;7.17;;;4.40;;
15114;SDS011;7658;51.456;7.622;2022-07-17T05:55:51;7.83;;;4.63;;
15114;SDS011;7658;51.456;7.622;2022-07-17T05:58:17;4.77;;;4.27;;
15114;SDS011;7658;51.456;7.622;2022-07-17T06:00:43;6.85;;;4.20;;
15114;SDS011;7658;51.456;7.622;2022-07-17T06:03:10;6.63;;;4.47;;
15114;SDS011;7658;51.456;7.622;2022-07-17T06:05:36;6.83;;;4.17;;
15114;SDS011;7658;51.456;7.622;2022-07-17T06:08:02;6.25;;;3.80;;
15114;SDS011;7658;51.456;7.622;2022-07-17T06:10:28;7.07;;;4.22;;
15114;SDS011;7658;51.456;7.622;2022-07-17T06:12:55;6.50;;;4.13;;
15114;SDS011;7658;51.456;7.622;2022-07-17T06:15:22;7.55;;;3.97;;
15114;SDS011;7658;51.456;7.622;2022-07-17T06:17:49;5.57;;;3.65;;
15114;SDS011;7658;51.456;7.622;2022-07-17T06:20:16;7.72;;;3.75;;
15114;SDS011;7658;51.456;7.622;2022-07-17T06:22:42;5.78;;;3.47;;
15114;SDS011;7658;51.456;7.622;2022-07-17T06:25:09;5.93;;;4.10;;
15114;SDS011;7658;51.456;7.622;2022-07-17T06:27:38;6.07;;;4.00;;
15114;SDS011;7658;51.456;7.622;2022-07-17T06:30:05;6.65;;;3.40;;
15114;SDS011;7658;51.456;7.622;2022-07-17T06:32:32;6.28;;;3.40;;
15114;SDS011;7658;51.456;7.622;2022-07-17T06:34:57;4.72;;;3.33;;
15114;SDS011;7658;51.456;7.622;2022-07-17T06:37:23;4.78;;;3.25;;
15114;SDS011;7658;51.456;7.622;2022-07-17T06:39:49;4.80;;;3.20;;
15114;SDS011;7658;51.456;7.622;2022-07-17T06:42:15;3.17;;;2.80;;
15114;SDS011;7658;51.456;7.622;2022-07-17T06:44:40;5.20;;;2.83;;
15114;SDS011;7658;51.456;7.622;2022-07-17T06:47:06;5.70;;;3.03;;
15114;SDS011;7658;51.456;7.622;2022-07-17T06:49:32;3.00;;;2.70;;
15114;SDS011;7658;51.456;7.622;2022-07-17T06:51:58;6.25;;;3.28;;
15114;SDS011;7658;51.456;7.622;2022-07-17T06:54:23;3.58;;;2.72;;
15114;SDS011;7658;51.456;7.622;2022-07-17T06:56:51;3.15;;;2.60;;
15114;SDS011;7658;51.456;7.622;2022-07-17T06:59:20;5.95;;;3.13;;
15114;SDS011;7658;51.456;7.622;2022-07-17T07:01:46;3.78;;;2.58;;
15114;SDS011;7658;51.456;7.622;2022-07-17T07:04:13;3.38;;;2.47;;
15114;SDS011;7658;51.456;7.622;2022-07-17T07:06:38;4.55;;;2.72;;
15114;SDS011;7658;51.456;7.622;2022-07-17T07:09:04;4.80;;;2.58;;
15114;SDS011;7658;51.456;7.622;2022-07-17T07:11:31;5.65;;;2.60;;
15114;SDS011;7658;51.456;7.622;2022-07-17T07:13:56;3.28;;;2.35;;
15114;SDS011;7658;51.456;7.622;2022-07-17T07:16:22;3.80;;;2.60;;
15114;SDS011;7658;51.456;7.622;2022-07-17T07:18:48;2.70;;;2.30;;
15114;SDS011;7658;51.456;7.622;2022-07-17T07:21:14;5.43;;;2.65;;
15114;SDS011;7658;51.456;7.622;2022-07-17T07:23:39;5.43;;;3.10;;
15114;SDS011;7658;51.456;7.622;2022-07-17T07:26:05;6.78;;;2.67;;
15114;SDS011;7658;51.456;7.622;2022-07-17T07:28:31;4.82;;;2.65;;
15114;SDS011;7658;51.456;7.622;2022-07-17T07:30:58;2.72;;;2.10;;
15114;SDS011;7658;51.456;7.622;2022-07-17T07:33:24;6.25;;;2.50;;
15114;SDS011;7658;51.456;7.622;2022-07-17T07:35:50;4.72;;;2.30;;
15114;SDS011;7658;51.456;7.622;2022-07-17T07:38:16;6.45;;;2.28;;
15114;SDS011;7658;51.456;7.622;2022-07-17T07:40:41;4.28;;;2.33;;
15114;SDS011;7658;51.456;7.622;2022-07-17T07:43:07;3.53;;;2.00;;
15114;SDS011;7658;51.456;7.622;2022-07-17T07:45:33;2.67;;;2.10;;
15114;SDS011;7658;51.456;7.622;2022-07-17T07:47:59;4.13;;;2.20;;
15114;SDS011;7658;51.456;7.622;2022-07-17T07:50:25;3.90;;;2.25;;
15114;SDS011;7658;51.456;7.622;2022-07-17T07:52:52;3.80;;;2.00;;
15114;SDS011;7658;51.456;7.622;2022-07-17T07:55:18;2.33;;;2.00;;
15114;SDS011;7658;51.456;7.622;2022-07-17T07:57:46;4.90;;;2.20;;
15114;SDS011;7658;51.456;7.622;2022-07-17T08:00:15;5.90;;;2.40;;
15114;SDS011;7658;51.456;7.622;2022-07-17T08:02:41;4.45;;;2.55;;
15114;SDS011;7658;51.456;7.622;2022-07-17T08:05:07;6.43;;;2.33;;
15114;SDS011;7658;51.456;7.622;2022-07-17T08:07:34;5.63;;;2.28;;
15114;SDS011;7658;51.456;7.622;2022-07-17T08:10:01;3.60;;;1.92;;
15114;SDS011;7658;51.456;7.622;2022-07-17T08:12:28;2.30;;;2.08;;
15114;SDS011;7658;51.456;7.622;2022-07-17T08:14:53;4.78;;;2.05;;
15114;SDS011;7658;51.456;7.622;2022-07-17T08:17:19;4.05;;;2.25;;
15114;SDS011;7658;51.456;7.622;2022-07-17T08:19:45;4.05;;;1.80;;
15114;SDS011;7658;51.456;7.622;2022-07-17T08:22:11;3.08;;;2.00;;
15114;SDS011;7658;51.456;7.622;2022-07-17T08:24:37;3.85;;;2.13;;
15114;SDS011;7658;51.456;7.622;2022-07-17T08:27:03;4.72;;;2.05;;
15114;SDS011;7658;51.456;7.622;2022-07-17T08:29:29;5.05;;;2.08;;
15114;SDS011;7658;51.456;7.622;2022-07-17T08:31:55;4.03;;;1.70;;
15114;SDS011;7658;51.456;7.622;2022-07-17T08:34:24;8.27;;;2.15;;
15114;SDS011;7658;51.456;7.622;2022-07-17T08:36:50;6.53;;;1.60;;
15114;SDS011;7658;51.456;7.622;2022-07-17T08:39:16;7.07;;;2.42;;
15114;SDS011;7658;51.456;7.622;2022-07-17T08:41:41;2.55;;;1.80;;
15114;SDS011;7658;51.456;7.622;2022-07-17T08:44:07;4.28;;;2.00;;
15114;SDS011;7658;51.456;7.622;2022-07-17T08:46:37;6.38;;;2.30;;
15114;SDS011;7658;51.456;7.622;2022-07-17T08:49:04;3.65;;;1.95;;
15114;SDS011;7658;51.456;7.622;2022-07-17T08:51:31;4.75;;;1.80;;
15114;SDS011;7658;51.456;7.622;2022-07-17T08:53:58;3.05;;;1.75;;
15114;SDS011;7658;51.456;7.622;2022-07-17T08:56:24;3.83;;;1.70;;
15114;SDS011;7658;51.456;7.622;2022-07-17T08:58:51;5.15;;;1.95;;
15114;SDS011;7658;51.456;7.622;2022-07-17T09:01:18;3.03;;;1.80;;
15114;SDS011;7658;51.456;7.622;2022-07-17T09:04:01;4.47;;;2.00;;
15114;SDS011;7658;51.456;7.622;2022-07-17T09:06:33;4.03;;;1.73;;
15114;SDS011;7658;51.456;7.622;2022-07-17T09:09:06;2.33;;;1.90;;
15114;SDS011;7658;51.456;7.622;2022-07-17T09:14:38;2.60;;;1.75;;
15114;SDS011;7658;51.456;7.622;2022-07-17T09:17:05;5.70;;;1.77;;
15114;SDS011;7658;51.456;7.622;2022-07-17T09:19:33;9.63;;;2.28;;
15114;SDS011;7658;51.456;7.622;2022-07-17T09:24:45;6.25;;;2.00;;
15114;SDS011;7658;51.456;7.622;2022-07-17T09:32:35;3.67;;;1.70;;
15114;SDS011;7658;51.456;7.622;2022-07-17T09:35:05;3.75;;;1.95;;
15114;SDS011;7658;51.456;7.622;2022-07-17T09:37:36;6.95;;;2.67;;
15114;SDS011;7658;51.456;7.622;2022-07-17T09:40:08;7.70;;;1.90;;
15114;SDS011;7658;51.456;7.622;2022-07-17T09:42:35;3.10;;;1.70;;
15114;SDS011;7658;51.456;7.622;2022-07-17T09:45:02;5.05;;;1.80;;
15114;SDS011;7658;51.456;7.622;2022-07-17T09:47:34;4.50;;;2.00;;
15114;SDS011;7658;51.456;7.622;2022-07-17T09:50:03;3.30;;;1.80;;
15114;SDS011;7658;51.456;7.622;2022-07-17T09:52:32;4.70;;;1.67;;
15114;SDS011;7658;51.456;7.622;2022-07-17T09:55:00;2.53;;;1.50;;
15114;SDS011;7658;51.456;7.622;2022-07-17T09:57:28;2.13;;;1.48;;
15114;SDS011;7658;51.456;7.622;2022-07-17T09:59:58;4.10;;;1.90;;
15114;SDS011;7658;51.456;7.622;2022-07-17T10:02:27;5.80;;;2.38;;
15114;SDS011;7658;51.456;7.622;2022-07-17T10:04:54;3.53;;;1.95;;
15114;SDS011;7658;51.456;7.622;2022-07-17T10:07:20;6.85;;;2.30;;
15114;SDS011;7658;51.456;7.622;2022-07-17T10:09:46;3.08;;;1.70;;
15114;SDS011;7658;51.456;7.622;2022-07-17T10:12:13;3.67;;;1.50;;
15114;SDS011;7658;51.456;7.622;2022-07-17T10:14:40;5.35;;;1.92;;
15114;SDS011;7658;51.456;7.622;2022-07-17T10:17:10;2.83;;;1.65;;
15114;SDS011;7658;51.456;7.622;2022-07-17T10:19:56;6.72;;;1.80;;
15114;SDS011;7658;51.456;7.622;2022-07-17T10:22:22;3.90;;;1.60;;
15114;SDS011;7658;51.456;7.622;2022-07-17T10:24:50;3.55;;;1.60;;
15114;SDS011;7658;51.456;7.622;2022-07-17T10:32:34;2.20;;;1.33;;
15114;SDS011;7658;51.456;7.622;2022-07-17T10:35:07;3.28;;;1.63;;
15114;SDS011;7658;51.456;7.622;2022-07-17T10:42:52;1.48;;;1.33;;
15114;SDS011;7658;51.456;7.622;2022-07-17T10:48:08;3.75;;;1.85;;
15114;SDS011;7658;51.456;7.622;2022-07-17T10:55:36;5.30;;;2.10;;
15114;SDS011;7658;51.456;7.622;2022-07-17T11:00:40;4.55;;;1.85;;
15114;SDS011;7658;51.456;7.622;2022-07-17T11:03:10;2.13;;;1.50;;
15114;SDS011;7658;51.456;7.622;2022-07-17T11:05:36;5.57;;;1.52;;
15114;SDS011;7658;51.456;7.622;2022-07-17T11:08:02;5.70;;;1.52;;
15114;SDS011;7658;51.456;7.622;2022-07-17T11:10:34;2.25;;;1.65;;
15114;SDS011;7658;51.456;7.622;2022-07-17T11:13:15;2.45;;;1.52;;
15114;SDS011;7658;51.456;7.622;2022-07-17T11:15:42;2.10;;;1.60;;
15114;SDS011;7658;51.456;7.622;2022-07-17T11:18:17;2.15;;;1.40;;
15114;SDS011;7658;51.456;7.622;2022-07-17T11:23:24;4.40;;;1.70;;
15114;SDS011;7658;51.456;7.622;2022-07-17T11:25:59;3.28;;;1.52;;
15114;SDS011;7658;51.456;7.622;2022-07-17T11:31:24;2.88;;;1.50;;
15114;SDS011;7658;51.456;7.622;2022-07-17T11:34:02;9.07;;;1.88;;
15114;SDS011;7658;51.456;7.622;2022-07-17T11:38:58;4.22;;;1.60;;
15114;SDS011;7658;51.456;7.622;2022-07-17T11:41:32;4.80;;;1.70;;
15114;SDS011;7658;51.456;7.622;2022-07-17T11:44:01;3.45;;;1.80;;
15114;SDS011;7658;51.456;7.622;2022-07-17T11:46:29;4.00;;;1.98;;
15114;SDS011;7658;51.456;7.622;2022-07-17T11:48:56;7.07;;;2.08;;
15114;SDS011;7658;51.456;7.622;2022-07-17T11:51:32;3.83;;;1.77;;
15114;SDS011;7658;51.456;7.622;2022-07-17T11:54:02;3.10;;;1.50;;
15114;SDS011;7658;51.456;7.622;2022-07-17T11:56:39;3.25;;;1.50;;
15114;SDS011;7658;51.456;7.622;2022-07-17T11:59:06;2.63;;;1.50;;
15114;SDS011;7658;51.456;7.622;2022-07-17T12:01:42;6.90;;;1.45;;
15114;SDS011;7658;51.456;7.622;2022-07-17T12:04:10;6.28;;;1.83;;
15114;SDS011;7658;51.456;7.622;2022-07-17T12:06:40;4.18;;;1.65;;
15114;SDS011;7658;51.456;7.622;2022-07-17T12:09:06;3.03;;;1.63;;
15114;SDS011;7658;51.456;7.622;2022-07-17T12:11:33;2.88;;;1.40;;
15114;SDS011;7658;51.456;7.622;2022-07-17T12:14:13;1.95;;;1.45;;
15114;SDS011;7658;51.456;7.622;2022-07-17T12:16:39;3.58;;;1.60;;
15114;SDS011;7658;51.456;7.622;2022-07-17T12:24:32;2.35;;;1.65;;
15114;SDS011;7658;51.456;7.622;2022-07-17T12:27:02;5.55;;;1.70;;
15114;SDS011;7658;51.456;7.622;2022-07-17T12:29:31;3.22;;;1.52;;
15114;SDS011;7658;51.456;7.622;2022-07-17T12:32:04;2.92;;;1.63;;
15114;SDS011;7658;51.456;7.622;2022-07-17T12:34:37;4.05;;;1.83;;
15114;SDS011;7658;51.456;7.622;2022-07-17T12:37:15;2.08;;;1.42;;
15114;SDS011;7658;51.456;7.622;2022-07-17T12:39:43;3.72;;;1.60;;
15114;SDS011;7658;51.456;7.622;2022-07-17T12:42:09;4.03;;;1.25;;
15114;SDS011;7658;51.456;7.622;2022-07-17T12:44:36;6.18;;;2.00;;
15114;SDS011;7658;51.456;7.622;2022-07-17T12:47:02;7.57;;;1.73;;
15114;SDS011;7658;51.456;7.622;2022-07-17T12:49:28;3.53;;;1.40;;
15114;SDS011;7658;51.456;7.622;2022-07-17T12:51:55;5.28;;;1.70;;
15114;SDS011;7658;51.456;7.622;2022-07-17T12:54:21;3.45;;;1.80;;
15114;SDS011;7658;51.456;7.622;2022-07-17T12:56:47;7.45;;;1.80;;
15114;SDS011;7658;51.456;7.622;2022-07-17T12:59:13;4.70;;;1.63;;
15114;SDS011;7658;51.456;7.622;2022-07-17T13:01:39;2.95;;;1.40;;
15114;SDS011;7658;51.456;7.622;2022-07-17T13:04:05;3.45;;;1.50;;
15114;SDS011;7658;51.456;7.622;2022-07-17T13:06:31;4.35;;;1.60;;
15114;SDS011;7658;51.456;7.622;2022-07-17T13:08:58;3.65;;;1.55;;
15114;SDS011;7658;51.456;7.622;2022-07-17T13:11:24;2.08;;;1.50;;
15114;SDS011;7658;51.456;7.622;2022-07-17T13:13:50;4.07;;;1.40;;
15114;SDS011;7658;51.456;7.622;2022-07-17T13:16:16;4.25;;;1.73;;
15114;SDS011;7658;51.456;7.622;2022-07-17T13:18:42;3.58;;;1.63;;
15114;SDS011;7658;51.456;7.622;2022-07-17T13:21:08;3.63;;;1.48;;
15114;SDS011;7658;51.456;7.622;2022-07-17T13:23:35;2.97;;;1.70;;
15114;SDS011;7658;51.456;7.622;2022-07-17T13:26:01;1.88;;;1.48;;
15114;SDS011;7658;51.456;7.622;2022-07-17T13:28:27;2.95;;;1.20;;
15114;SDS011;7658;51.456;7.622;2022-07-17T13:30:52;3.00;;;1.40;;
15114;SDS011;7658;51.456;7.622;2022-07-17T13:33:19;1.73;;;1.13;;
15114;SDS011;7658;51.456;7.622;2022-07-17T13:35:45;3.83;;;1.25;;
15114;SDS011;7658;51.456;7.622;2022-07-17T13:38:11;2.35;;;1.40;;
15114;SDS011;7658;51.456;7.622;2022-07-17T13:40:37;2.50;;;1.25;;
15114;SDS011;7658;51.456;7.622;2022-07-17T13:43:03;5.65;;;1.52;;
15114;SDS011;7658;51.456;7.622;2022-07-17T13:45:29;4.47;;;1.30;;
15114;SDS011;7658;51.456;7.622;2022-07-17T13:47:55;2.95;;;1.50;;
15114;SDS011;7658;51.456;7.622;2022-07-17T13:50:22;4.63;;;1.50;;
15114;SDS011;7658;51.456;7.622;2022-07-17T13:52:48;3.55;;;1.38;;
15114;SDS011;7658;51.456;7.622;2022-07-17T13:55:14;3.78;;;1.20;;
15114;SDS011;7658;51.456;7.622;2022-07-17T13:57:41;5.07;;;1.35;;
15114;SDS011;7658;51.456;7.622;2022-07-17T14:00:07;4.05;;;1.65;;
15114;SDS011;7658;51.456;7.622;2022-07-17T14:02:34;2.58;;;1.40;;
15114;SDS011;7658;51.456;7.622;2022-07-17T14:05:01;4.63;;;1.55;;
15114;SDS011;7658;51.456;7.622;2022-07-17T14:07:28;3.40;;;1.30;;
15114;SDS011;7658;51.456;7.622;2022-07-17T14:09:54;2.53;;;1.35;;
15114;SDS011;7658;51.456;7.622;2022-07-17T14:12:20;2.42;;;1.50;;
15114;SDS011;7658;51.456;7.622;2022-07-17T14:14:46;1.95;;;1.48;;
15114;SDS011;7658;51.456;7.622;2022-07-17T14:17:11;2.20;;;1.33;;
15114;SDS011;7658;51.456;7.622;2022-07-17T14:19:37;4.32;;;1.60;;
15114;SDS011;7658;51.456;7.622;2022-07-17T14:22:03;2.33;;;1.40;;
15114;SDS011;7658;51.456;7.622;2022-07-17T14:24:29;2.35;;;1.50;;
15114;SDS011;7658;51.456;7.622;2022-07-17T14:26:55;5.00;;;1.30;;
15114;SDS011;7658;51.456;7.622;2022-07-17T14:29:22;3.67;;;1.30;;
15114;SDS011;7658;51.456;7.622;2022-07-17T14:31:49;4.22;;;1.35;;
15114;SDS011;7658;51.456;7.622;2022-07-17T14:34:15;2.28;;;1.33;;
15114;SDS011;7658;51.456;7.622;2022-07-17T14:36:42;2.10;;;1.30;;
15114;SDS011;7658;51.456;7.622;2022-07-17T14:39:08;2.08;;;1.10;;
15114;SDS011;7658;51.456;7.622;2022-07-17T14:41:34;2.92;;;1.15;;
15114;SDS011;7658;51.456;7.622;2022-07-17T14:44:00;2.65;;;1.38;;
15114;SDS011;7658;51.456;7.622;2022-07-17T14:46:26;4.25;;;1.40;;
15114;SDS011;7658;51.456;7.622;2022-07-17T14:48:52;5.57;;;1.73;;
15114;SDS011;7658;51.456;7.622;2022-07-17T14:51:18;1.38;;;1.17;;
15114;SDS011;7658;51.456;7.622;2022-07-17T14:53:44;2.80;;;1.40;;
15114;SDS011;7658;51.456;7.622;2022-07-17T14:56:09;4.88;;;1.40;;
15114;SDS011;7658;51.456;7.622;2022-07-17T14:58:35;1.23;;;1.02;;
15114;SDS011;7658;51.456;7.622;2022-07-17T15:01:01;7.35;;;1.50;;
15114;SDS011;7658;51.456;7.622;2022-07-17T15:03:27;4.85;;;1.40;;
15114;SDS011;7658;51.456;7.622;2022-07-17T15:05:52;1.63;;;0.93;;
15114;SDS011;7658;51.456;7.622;2022-07-17T15:08:18;3.20;;;1.33;;
15114;SDS011;7658;51.456;7.622;2022-07-17T15:10:44;4.07;;;1.23;;
15114;SDS011;7658;51.456;7.622;2022-07-17T15:13:09;2.83;;;1.30;;
15114;SDS011;7658;51.456;7.622;2022-07-17T15:15:35;3.35;;;1.30;;
15114;SDS011;7658;51.456;7.622;2022-07-17T15:18:01;2.00;;;1.10;;
15114;SDS011;7658;51.456;7.622;2022-07-17T15:20:27;5.03;;;1.60;;
15114;SDS011;7658;51.456;7.622;2022-07-17T15:22:53;2.10;;;1.30;;
15114;SDS011;7658;51.456;7.622;2022-07-17T15:25:18;3.67;;;1.38;;
15114;SDS011;7658;51.456;7.622;2022-07-17T15:27:44;3.45;;;1.20;;
15114;SDS011;7658;51.456;7.622;2022-07-17T15:30:10;4.05;;;1.50;;
15114;SDS011;7658;51.456;7.622;2022-07-17T15:32:36;4.00;;;1.50;;
15114;SDS011;7658;51.456;7.622;2022-07-17T15:35:03;3.25;;;1.40;;
15114;SDS011;7658;51.456;7.622;2022-07-17T15:37:30;3.40;;;1.33;;
15114;SDS011;7658;51.456;7.622;2022-07-17T15:39:56;2.58;;;1.20;;
15114;SDS011;7658;51.456;7.622;2022-07-17T15:42:24;4.55;;;1.58;;
15114;SDS011;7658;51.456;7.622;2022-07-17T15:44:51;2.50;;;1.20;;
15114;SDS011;7658;51.456;7.622;2022-07-17T15:47:16;5.10;;;1.27;;